メインページ
METAR-TAF:

METAR-TAF

空港 :

メヘラーバード国際空港

テヘラン, イラン

緯度: 35-41N, 経度: 051-21E, 海抜: 1204m

現時点の気象観測

当レポートは10分前の03:00(UTC)に作成
北西の風 4kt
気温 22°C
湿度 27%
気圧 1019 hPa
視程10km以上
高度9000ftの雲は散在している

METAR: OIII 210300Z 31004KT 9999 SCT090 22/02 Q1019 A3009

時間: 07:40 (03:10 UTC)

予報

当レポートは4時間10分前の23:00(UTC)に作成
予報は21日の 00時(UTC)から 22日の 06時(UTC)まで有効
西/南西の風 12kt
視程: 8000m
高度3500ftの雲はほとんどない
高度10000ftの雲は散在している
21日の 12時(UTC)から 21日の 14時(UTC)まで徐々に
北/北西の風 16kt
高度3000ftの雲はほとんどない, 積乱雲.
高度3500ftの雲はほとんどない
高度9000ftの千切れ雲あり
21日の 15時(UTC)から 21日の 22時(UTC)まで一時的に
視程: 5000m
高度3000ftの雲は散在している, 積乱雲.
高度3500ftの雲は散在している
高度9000ftの千切れ雲あり
激しい雷雨, 雨
22日の 00時(UTC)から 22日の 06時(UTC)まで一時的に
視程: 3000m
高度3000ftの雲は散在している, 積乱雲.
高度3500ftの雲は散在している
高度9000ftの曇り
激しい雷雨, 雨

TAF: OIII 202300Z 2100/2206 25006MPS 8000 FEW035 SCT100 BECMG 2112/2114 34008MPS FEW030CB FEW035 BKN090 TEMPO 2115/2122 5000 TSRA SCT030CB SCT035 BKN090 TEMPO 2200/2206 33008G13 3000 TSRA SCT030CB SCT035 OVC090

4,000以上の空港の気象観測と天気予報(METAR報とTAF報)

利用可能な観測所は地図上に黄色い丸と赤い丸で示す。

丸の上にカーソルを重ねると観測所名を参照できる。

次にクリックすると気象観測と天気予報を参照できる。

マップの切り替え:黒色「×」印の緑ボタンをクリックして拡大、「-」印の緑ボタンをクリックして縮小、緑色の三角印をクリックして隣りの地図に切り替え


METAR-TAF: